createdAt,value
2018-04-26T00:00:12.523Z,0
2018-04-26T00:01:12.444Z,0
2018-04-26T00:02:12.463Z,0
2018-04-26T00:03:12.490Z,0
2018-04-26T00:04:12.761Z,0
2018-04-26T00:05:12.524Z,0
2018-04-26T00:06:12.026Z,0
2018-04-26T00:07:12.564Z,0
2018-04-26T00:08:12.852Z,0
2018-04-26T00:09:27.521Z,0
2018-04-26T00:10:27.284Z,0
2018-04-26T00:11:27.559Z,0
2018-04-26T00:12:12.410Z,0
2018-04-26T00:13:12.732Z,0
2018-04-26T00:14:12.441Z,0
2018-04-26T00:15:12.463Z,0
2018-04-26T00:16:12.741Z,0
2018-04-26T00:17:27.687Z,0
2018-04-26T00:18:12.781Z,0
2018-04-26T00:19:12.806Z,0
2018-04-26T00:20:13.082Z,0
2018-04-26T00:21:13.098Z,0
2018-04-26T00:22:12.858Z,0
2018-04-26T00:23:12.880Z,0
2018-04-26T00:24:27.820Z,0
2018-04-26T00:25:13.188Z,0
2018-04-26T00:27:12.697Z,0
2018-04-26T00:28:12.988Z,0
2018-04-26T00:29:13.272Z,0
2018-04-26T00:31:12.778Z,0
2018-04-26T00:32:27.978Z,0
2018-04-26T00:33:13.078Z,0
2018-04-26T00:34:13.100Z,0
2018-04-26T00:35:13.118Z,0
2018-04-26T00:36:13.398Z,0
2018-04-26T00:37:13.160Z,0
2018-04-26T00:38:13.432Z,0
2018-04-26T00:39:28.115Z,0
2018-04-26T00:40:28.136Z,0
2018-04-26T00:41:13.234Z,0
2018-04-26T00:42:27.918Z,0
2018-04-26T00:43:13.030Z,0
2018-04-26T00:44:13.557Z,0
2018-04-26T00:46:13.597Z,0
2018-04-26T00:47:13.614Z,0
2018-04-26T00:48:13.468Z,0
2018-04-26T00:49:13.392Z,0
2018-04-26T00:50:13.671Z,0
2018-04-26T00:51:13.701Z,0
2018-04-26T00:52:13.188Z,0
2018-04-26T00:53:13.806Z,0
2018-04-26T00:54:13.754Z,0
2018-04-26T00:56:13.791Z,0
2018-04-26T00:57:28.208Z,0
2018-04-26T00:58:28.494Z,0
2018-04-26T00:59:13.328Z,0
2018-04-26T01:00:13.867Z,0
2018-04-26T01:01:13.887Z,0
2018-04-26T01:03:13.668Z,0
2018-04-26T01:04:28.603Z,0
2018-04-26T01:05:13.976Z,0
2018-04-26T01:06:14.084Z,0
2018-04-26T01:07:13.778Z,0
2018-04-26T01:08:13.503Z,0
2018-04-26T01:09:14.050Z,0
2018-04-26T01:10:13.806Z,0
2018-04-26T01:11:14.079Z,0
2018-04-26T01:12:28.758Z,0
2018-04-26T01:13:13.861Z,0
2018-04-26T01:14:14.136Z,0
2018-04-26T01:15:13.906Z,0
2018-04-26T01:16:14.182Z,0
2018-04-26T01:17:14.202Z,0
2018-04-26T01:18:14.219Z,0
2018-04-26T01:19:28.638Z,0
2018-04-26T01:20:28.702Z,0
2018-04-26T01:21:13.759Z,0
2018-04-26T01:22:14.034Z,0
2018-04-26T01:23:14.316Z,0
2018-04-26T01:24:14.339Z,0
2018-04-26T01:25:14.358Z,0
2018-04-26T01:26:14.370Z,0
2018-04-26T01:27:14.393Z,0
2018-04-26T01:28:13.891Z,0
2018-04-26T01:29:28.832Z,0
2018-04-26T01:30:14.449Z,0
2018-04-26T01:31:14.467Z,0
2018-04-26T01:32:14.487Z,0
2018-04-26T01:33:14.512Z,0
2018-04-26T01:34:14.535Z,0
2018-04-26T01:35:14.286Z,0
2018-04-26T01:36:14.309Z,0
2018-04-26T01:37:14.327Z,0
2018-04-26T01:38:14.600Z,0
2018-04-26T01:39:29.279Z,0
2018-04-26T01:40:14.640Z,0
2018-04-26T01:41:14.661Z,0
2018-04-26T01:42:14.422Z,0
2018-04-26T01:44:29.390Z,0
2018-04-26T01:45:44.056Z,0
2018-04-26T01:46:14.498Z,0
2018-04-26T01:47:14.521Z,0
2018-04-26T01:48:14.803Z,0
2018-04-26T01:49:29.474Z,0
2018-04-26T01:50:29.247Z,0
2018-04-26T01:51:14.850Z,0
2018-04-26T01:52:14.623Z,0
2018-04-26T01:53:14.896Z,0
2018-04-26T01:54:14.917Z,0
2018-04-26T01:55:14.940Z,0
2018-04-26T01:56:14.949Z,0
2018-04-26T01:58:14.729Z,0
2018-04-26T01:59:14.757Z,0
2018-04-26T02:00:14.764Z,0
2018-04-26T02:01:29.710Z,0
2018-04-26T02:02:14.801Z,0
2018-04-26T02:04:29.500Z,0
2018-04-26T02:05:15.119Z,0
2018-04-26T02:06:15.142Z,0
2018-04-26T02:07:29.820Z,0
2018-04-26T02:08:29.843Z,0
2018-04-26T02:09:14.681Z,0
2018-04-26T02:10:15.039Z,0
2018-04-26T02:11:15.235Z,0
2018-04-26T02:12:15.253Z,0
2018-04-26T02:13:15.279Z,0
2018-04-26T02:14:15.305Z,0
2018-04-26T02:15:15.055Z,0
2018-04-26T02:16:15.341Z,0
2018-04-26T02:17:29.766Z,0
2018-04-26T02:18:15.109Z,0
2018-04-26T02:19:15.128Z,0
2018-04-26T02:20:15.412Z,0
2018-04-26T02:21:15.427Z,0
2018-04-26T02:23:15.207Z,0
2018-04-26T02:24:15.476Z,0
2018-04-26T02:25:15.245Z,0
2018-04-26T02:26:15.529Z,0
2018-04-26T02:27:15.283Z,0
2018-04-26T02:28:15.039Z,0
2018-04-26T02:29:15.318Z,0
2018-04-26T02:30:15.600Z,0
2018-04-26T02:32:30.036Z,0
2018-04-26T02:33:15.392Z,0
2018-04-26T02:34:15.421Z,0
2018-04-26T02:35:15.702Z,0
2018-04-26T02:36:30.380Z,0
2018-04-26T02:37:15.215Z,0
2018-04-26T02:38:30.151Z,0
2018-04-26T02:39:15.508Z,0
2018-04-26T02:40:15.789Z,0
2018-04-26T02:41:15.551Z,0
2018-04-26T02:42:15.823Z,0
2018-04-26T02:43:15.321Z,0
2018-04-26T02:44:15.863Z,0
2018-04-26T02:45:15.894Z,0
2018-04-26T02:46:15.641Z,0
2018-04-26T02:47:15.657Z,0
2018-04-26T02:48:15.779Z,0
2018-04-26T02:49:15.965Z,0
2018-04-26T02:51:15.992Z,0
2018-04-26T02:52:15.755Z,0
2018-04-26T02:53:16.040Z,0
2018-04-26T02:54:16.064Z,0
2018-04-26T02:55:15.828Z,0
2018-04-26T02:56:16.088Z,0
2018-04-26T02:57:15.847Z,0
2018-04-26T02:58:15.876Z,0
2018-04-26T02:59:15.894Z,0
2018-04-26T03:01:30.838Z,0
2018-04-26T03:02:16.220Z,0
2018-04-26T03:03:16.277Z,4
2018-04-26T03:04:30.639Z,4
2018-04-26T03:05:16.000Z,0
2018-04-26T03:06:30.937Z,0
2018-04-26T03:07:16.056Z,4
2018-04-26T03:08:16.238Z,4
2018-04-26T03:09:16.081Z,0
2018-04-26T03:10:15.889Z,4
2018-04-26T03:11:16.142Z,4
2018-04-26T03:12:15.878Z,4
2018-04-26T03:13:16.410Z,4
2018-04-26T03:14:15.906Z,8
2018-04-26T03:15:15.940Z,4
2018-04-26T03:16:16.467Z,8
2018-04-26T03:17:16.481Z,8
2018-04-26T03:18:16.237Z,8
2018-04-26T03:19:16.603Z,8
2018-04-26T03:20:45.856Z,12
2018-04-26T03:21:16.298Z,16
2018-04-26T03:22:16.572Z,16
2018-04-26T03:23:16.592Z,20
2018-04-26T03:24:30.751Z,24
2018-04-26T03:26:16.491Z,32
2018-04-26T03:28:16.422Z,44
2018-04-26T03:29:16.711Z,52
2018-04-26T03:30:16.726Z,60
2018-04-26T03:31:17.552Z,72
2018-04-26T03:32:16.760Z,84
2018-04-26T03:33:16.812Z,96
2018-04-26T03:34:16.795Z,112
2018-04-26T03:35:16.812Z,124
2018-04-26T03:36:31.491Z,144
2018-04-26T03:37:31.514Z,164
2018-04-26T03:38:31.528Z,180
2018-04-26T03:39:16.895Z,196
2018-04-26T03:40:31.316Z,224
2018-04-26T03:41:16.941Z,240
2018-04-26T03:42:16.946Z,264
2018-04-26T03:44:16.727Z,316
2018-04-26T03:45:16.483Z,344
2018-04-26T03:46:17.022Z,380
2018-04-26T03:47:16.785Z,412
2018-04-26T03:48:17.055Z,452
2018-04-26T03:49:17.079Z,492
2018-04-26T03:50:17.095Z,536
2018-04-26T03:51:16.867Z,580
2018-04-26T03:52:31.792Z,648
2018-04-26T03:53:31.809Z,704
2018-04-26T03:54:17.178Z,744
2018-04-26T03:55:17.189Z,792
2018-04-26T03:57:16.969Z,904
2018-04-26T03:58:16.987Z,964
2018-04-26T03:59:31.919Z,1052
2018-04-26T04:00:17.284Z,1112
2018-04-26T04:01:17.303Z,1180
2018-04-26T04:02:17.322Z,1228
2018-04-26T04:03:32.005Z,1256
2018-04-26T04:04:32.019Z,1280
2018-04-26T04:05:17.119Z,1308
2018-04-26T04:06:32.056Z,1376
2018-04-26T04:07:31.816Z,1448
2018-04-26T04:08:17.430Z,1512
2018-04-26T04:09:31.856Z,1648
2018-04-26T04:11:17.493Z,1760
2018-04-26T04:12:17.245Z,1840
2018-04-26T04:13:17.280Z,1928
2018-04-26T04:14:17.545Z,2044
2018-04-26T04:15:17.563Z,2180
2018-04-26T04:16:17.651Z,2332
2018-04-26T04:17:17.602Z,2480
2018-04-26T04:18:17.363Z,2656
2018-04-26T04:19:17.642Z,2892
2018-04-26T04:20:17.656Z,3172
2018-04-26T04:21:17.679Z,3460
2018-04-26T04:22:32.360Z,3736
2018-04-26T04:23:17.712Z,3828
2018-04-26T04:24:17.474Z,3996
2018-04-26T04:25:17.496Z,4220
2018-04-26T04:27:17.525Z,4512
2018-04-26T04:28:17.813Z,4704
2018-04-26T04:29:17.831Z,5152
2018-04-26T04:30:17.842Z,5352
2018-04-26T04:31:17.864Z,5252
2018-04-26T04:32:17.623Z,5028
2018-04-26T04:33:17.905Z,4824
2018-04-26T04:34:17.928Z,4708
2018-04-26T04:35:18.272Z,4560
2018-04-26T04:36:17.964Z,4464
2018-04-26T04:37:17.988Z,4488
2018-04-26T04:38:17.740Z,4728
2018-04-26T04:39:32.416Z,4988
2018-04-26T04:40:18.036Z,5200
2018-04-26T04:41:32.455Z,5924
2018-04-26T04:42:32.739Z,5912
2018-04-26T04:43:18.100Z,5868
2018-04-26T04:44:17.861Z,5832
2018-04-26T04:45:18.410Z,5556
2018-04-26T04:46:18.161Z,5356
2018-04-26T04:47:18.181Z,5584
2018-04-26T04:48:17.675Z,8348
2018-04-26T04:49:17.955Z,10624
2018-04-26T04:50:18.230Z,10752
2018-04-26T04:51:18.352Z,13984
2018-04-26T04:52:18.017Z,13024
2018-04-26T04:53:18.372Z,12384
2018-04-26T04:54:32.973Z,11604
2018-04-26T04:55:32.989Z,8796
2018-04-26T04:56:32.755Z,4540
2018-04-26T04:57:18.109Z,4256
2018-04-26T04:59:18.151Z,4144
2018-04-26T05:01:18.458Z,5184
2018-04-26T05:02:18.479Z,5916
2018-04-26T05:03:18.497Z,7008
2018-04-26T05:04:18.516Z,8400
2018-04-26T05:05:18.543Z,9252
2018-04-26T05:06:33.221Z,10156
2018-04-26T05:07:18.684Z,17376
2018-04-26T05:08:18.605Z,15616
2018-04-26T05:09:18.623Z,12640
2018-04-26T05:10:18.640Z,7288
2018-04-26T05:11:33.352Z,11264
2018-04-26T05:12:18.690Z,5960
2018-04-26T05:13:18.452Z,5548
2018-04-26T05:14:18.727Z,6000
2018-04-26T05:15:18.750Z,6828
2018-04-26T05:16:18.772Z,7624
2018-04-26T05:17:18.787Z,8016
2018-04-26T05:18:18.560Z,8172
2018-04-26T05:19:33.230Z,8376
2018-04-26T05:20:18.333Z,10076
2018-04-26T05:21:18.618Z,13984
2018-04-26T05:22:33.549Z,11192
2018-04-26T05:23:18.916Z,8148
2018-04-26T05:24:18.935Z,4052
2018-04-26T05:25:18.957Z,3212
2018-04-26T05:26:18.718Z,3700
2018-04-26T05:27:33.657Z,4404
2018-04-26T05:28:18.762Z,4360
2018-04-26T05:29:19.051Z,3280
2018-04-26T05:30:19.064Z,2272
2018-04-26T05:31:33.756Z,1628
2018-04-26T05:32:19.111Z,1512
2018-04-26T05:33:19.131Z,1364
2018-04-26T05:34:19.148Z,1196
2018-04-26T05:35:18.911Z,1056
2018-04-26T05:36:18.932Z,916
2018-04-26T05:37:19.216Z,840
2018-04-26T05:38:19.238Z,788
2018-04-26T05:39:18.993Z,696
2018-04-26T05:40:19.016Z,636
2018-04-26T05:41:19.290Z,604
2018-04-26T05:42:33.974Z,616
2018-04-26T05:43:19.340Z,676
2018-04-26T05:44:19.209Z,876
2018-04-26T05:45:33.778Z,1112
2018-04-26T05:46:19.136Z,1264
2018-04-26T05:47:19.588Z,1632
2018-04-26T05:48:19.178Z,1900
2018-04-26T05:49:19.200Z,2072
2018-04-26T05:50:19.221Z,2128
2018-04-26T05:51:19.498Z,2208
2018-04-26T05:52:19.525Z,2264
2018-04-26T05:53:34.204Z,2256
2018-04-26T05:54:19.560Z,2352
2018-04-26T05:55:19.587Z,2652
2018-04-26T05:56:19.085Z,3112
2018-04-26T05:57:19.372Z,3536
2018-04-26T05:58:19.745Z,3964
2018-04-26T05:59:19.674Z,4304
2018-04-26T06:00:34.343Z,4368
2018-04-26T06:01:19.708Z,4408
2018-04-26T06:02:19.469Z,4820
2018-04-26T06:03:19.750Z,6112
2018-04-26T06:04:19.764Z,8248
2018-04-26T06:06:19.911Z,14560
2018-04-26T06:07:19.565Z,17664
2018-04-26T06:08:19.857Z,26528
2018-04-26T06:09:19.607Z,18752
2018-04-26T06:10:34.294Z,17312
2018-04-26T06:11:20.118Z,15708
2018-04-26T06:12:19.932Z,11672
2018-04-26T06:14:34.629Z,8472
2018-04-26T06:15:19.991Z,9080
2018-04-26T06:16:19.507Z,9600
2018-04-26T06:17:20.223Z,8972
2018-04-26T06:18:20.056Z,7848
2018-04-26T06:19:20.077Z,7604
2018-04-26T06:20:19.847Z,7008
2018-04-26T06:21:20.130Z,6752
2018-04-26T06:22:20.144Z,6964
2018-04-26T06:23:20.164Z,6852
2018-04-26T06:24:34.852Z,6292
2018-04-26T06:25:20.208Z,5860
2018-04-26T06:26:20.241Z,5412
2018-04-26T06:27:34.910Z,4452
2018-04-26T06:28:20.269Z,4032
2018-04-26T06:29:20.037Z,3704
2018-04-26T06:30:49.634Z,3400
2018-04-26T06:31:20.079Z,3276
2018-04-26T06:32:35.013Z,3024
2018-04-26T06:33:19.859Z,2924
2018-04-26T06:34:20.144Z,2900
2018-04-26T06:35:20.429Z,2920
2018-04-26T06:36:20.199Z,2872
2018-04-26T06:37:34.863Z,2764
2018-04-26T06:38:20.225Z,2696
2018-04-26T06:39:35.163Z,2820
2018-04-26T06:40:20.009Z,2932
2018-04-26T06:41:20.552Z,3132
2018-04-26T06:42:20.815Z,3324
2018-04-26T06:43:20.586Z,3364
2018-04-26T06:44:20.350Z,3412
2018-04-26T06:45:20.374Z,3308
2018-04-26T06:46:35.305Z,3124
2018-04-26T06:47:20.775Z,3132
2018-04-26T06:49:20.718Z,3372
2018-04-26T06:50:20.734Z,3588
2018-04-26T06:52:20.774Z,4144
2018-04-26T06:53:35.482Z,4916
2018-04-26T06:54:20.305Z,5344
2018-04-26T06:55:20.581Z,5452
2018-04-26T06:56:20.861Z,5384
2018-04-26T06:57:20.366Z,5500
2018-04-26T06:58:20.646Z,5716
2018-04-26T07:00:21.021Z,5504
2018-04-26T07:01:20.984Z,4972
2018-04-26T07:02:35.387Z,4572
2018-04-26T07:04:20.509Z,4176
2018-04-26T07:05:20.794Z,3964
2018-04-26T07:06:21.072Z,4040
2018-04-26T07:07:20.587Z,4052
2018-04-26T07:08:20.860Z,4192
2018-04-26T07:09:20.881Z,4640
2018-04-26T07:10:35.815Z,4820
2018-04-26T07:11:20.921Z,4732
2018-04-26T07:12:21.210Z,4276
2018-04-26T07:13:21.218Z,4020
2018-04-26T07:14:21.246Z,3868
2018-04-26T07:15:35.922Z,3564
2018-04-26T07:16:35.942Z,3556
2018-04-26T07:17:35.700Z,3652
2018-04-26T07:18:21.331Z,3760
2018-04-26T07:19:21.345Z,3880
2018-04-26T07:20:21.374Z,4020
2018-04-26T07:21:36.121Z,4124
2018-04-26T07:22:21.160Z,4040
2018-04-26T07:23:21.169Z,3808
2018-04-26T07:24:21.453Z,3548
2018-04-26T07:25:21.466Z,3224
2018-04-26T07:26:36.153Z,2928
2018-04-26T07:28:21.545Z,2708
2018-04-26T07:29:21.555Z,2504
2018-04-26T07:30:21.580Z,2372
2018-04-26T07:31:21.602Z,2244
2018-04-26T07:32:21.636Z,2448
2018-04-26T07:33:21.642Z,2612
2018-04-26T07:34:36.317Z,2580
2018-04-26T07:35:21.682Z,2536
2018-04-26T07:36:21.706Z,2408
2018-04-26T07:37:21.728Z,2240
2018-04-26T07:38:21.742Z,2308
2018-04-26T07:39:21.768Z,2628
2018-04-26T07:40:36.445Z,3128
2018-04-26T07:41:21.814Z,3628
2018-04-26T07:42:21.565Z,4512
2018-04-26T07:43:21.969Z,5824
2018-04-26T07:44:21.877Z,7480
2018-04-26T07:45:36.550Z,11592
2018-04-26T07:46:21.922Z,17056
2018-04-26T07:47:21.927Z,23872
2018-04-26T07:48:21.697Z,56256
2018-04-26T07:49:36.640Z,46976
2018-04-26T07:50:22.003Z,56224
2018-04-26T07:51:21.760Z,35168
2018-04-26T07:52:22.039Z,46464
2018-04-26T07:53:21.983Z,60576
2018-04-26T07:54:22.090Z,64832
2018-04-26T07:55:22.105Z,62400
2018-04-26T07:56:22.134Z,64608
2018-04-26T07:57:36.811Z,65216
2018-04-26T07:58:21.921Z,66848
2018-04-26T07:59:21.938Z,41152
2018-04-26T08:00:22.222Z,57024
2018-04-26T08:01:22.261Z,70304
2018-04-26T08:02:37.028Z,39232
2018-04-26T08:03:22.054Z,36544
2018-04-26T08:04:22.069Z,59392
2018-04-26T08:05:37.003Z,50464
2018-04-26T08:07:22.478Z,54048
2018-04-26T08:08:22.421Z,46560
2018-04-26T08:09:22.455Z,46528
2018-04-26T08:10:37.135Z,38432
2018-04-26T08:12:22.268Z,31424
2018-04-26T08:13:22.553Z,31200
2018-04-26T08:14:22.330Z,62848
2018-04-26T08:15:22.600Z,41888
2018-04-26T08:16:37.028Z,41504
2018-04-26T08:17:21.879Z,34080
2018-04-26T08:18:22.778Z,40704
2018-04-26T08:19:22.714Z,34144
2018-04-26T08:20:22.734Z,50144
2018-04-26T08:21:37.158Z,30880
2018-04-26T08:22:37.455Z,24864
2018-04-26T08:23:22.810Z,41024
2018-04-26T08:24:22.842Z,30784
2018-04-26T08:25:22.607Z,29440
2018-04-26T08:26:22.645Z,42656
2018-04-26T08:27:22.145Z,30848
2018-04-26T08:28:22.952Z,49216
2018-04-26T08:29:22.972Z,51264
2018-04-26T08:30:23.058Z,50272
2018-04-26T08:31:22.770Z,51168
2018-04-26T08:32:22.795Z,32224
2018-04-26T08:33:22.819Z,35296
2018-04-26T08:34:23.106Z,57568
2018-04-26T08:35:22.879Z,52192
2018-04-26T08:36:23.161Z,19456
2018-04-26T08:37:52.509Z,12904
2018-04-26T08:38:23.053Z,11676
2018-04-26T08:39:22.990Z,9388
2018-04-26T08:40:23.272Z,7508
2018-04-26T08:41:23.305Z,5996
2018-04-26T08:42:23.068Z,4756
2018-04-26T08:43:23.457Z,3736
2018-04-26T08:44:23.116Z,2840
2018-04-26T08:45:23.147Z,2104
2018-04-26T08:46:23.430Z,1604
2018-04-26T08:47:23.212Z,1292
2018-04-26T08:48:23.220Z,1084
2018-04-26T08:49:38.167Z,940
2018-04-26T08:50:23.339Z,1008
2018-04-26T08:51:23.556Z,1428
2018-04-26T08:52:37.990Z,2008
2018-04-26T08:53:23.603Z,2160
2018-04-26T08:54:38.031Z,2228
2018-04-26T08:55:38.055Z,2232
2018-04-26T08:56:23.682Z,2208
2018-04-26T08:57:23.708Z,2304
2018-04-26T08:58:23.468Z,2780
2018-04-26T08:59:23.753Z,3756
2018-04-26T09:00:38.174Z,4928
2018-04-26T09:01:23.801Z,5064
2018-04-26T09:02:23.833Z,4152
2018-04-26T09:03:23.587Z,4060
2018-04-26T09:04:23.605Z,4424
2018-04-26T09:05:23.891Z,4316
2018-04-26T09:07:23.937Z,4428
2018-04-26T09:08:23.699Z,4332
2018-04-26T09:09:38.645Z,4788
2018-04-26T09:10:24.005Z,5196
2018-04-26T09:11:23.776Z,5996
2018-04-26T09:12:24.066Z,6684
2018-04-26T09:13:24.078Z,5692
2018-04-26T09:14:24.097Z,4248
2018-04-26T09:15:24.123Z,3152
2018-04-26T09:16:24.148Z,2296
2018-04-26T09:18:24.188Z,1076
2018-04-26T09:19:23.953Z,920
2018-04-26T09:20:23.980Z,984
2018-04-26T09:21:23.996Z,1104
2018-04-26T09:22:24.280Z,1180
2018-04-26T09:23:24.054Z,1292
2018-04-26T09:24:38.982Z,1456
2018-04-26T09:25:24.348Z,1432
2018-04-26T09:26:39.024Z,1372
2018-04-26T09:28:24.424Z,1216
2018-04-26T09:29:24.177Z,1152
2018-04-26T09:30:24.460Z,1088
2018-04-26T09:31:24.480Z,1140
2018-04-26T09:32:23.982Z,1212
2018-04-26T09:33:24.522Z,1320
2018-04-26T09:34:24.290Z,1472
2018-04-26T09:35:24.564Z,1764
2018-04-26T09:36:39.248Z,2400
2018-04-26T09:37:24.352Z,2932
2018-04-26T09:38:24.639Z,3508
2018-04-26T09:39:24.392Z,4084
2018-04-26T09:40:39.329Z,4512
2018-04-26T09:41:39.094Z,4648
2018-04-26T09:42:24.457Z,4660
2018-04-26T09:43:24.733Z,4692
2018-04-26T09:44:24.760Z,4696
2018-04-26T09:46:24.020Z,5544
2018-04-26T09:47:24.306Z,6132
2018-04-26T09:48:39.579Z,6932
2018-04-26T09:49:24.342Z,7744
2018-04-26T09:50:24.881Z,8788
2018-04-26T09:51:24.903Z,10132
2018-04-26T09:52:24.406Z,11420
2018-04-26T09:53:24.691Z,12804
2018-04-26T09:54:25.045Z,13572
2018-04-26T09:56:39.415Z,14544
2018-04-26T09:57:39.770Z,15060
2018-04-26T09:58:25.056Z,15568
2018-04-26T10:00:25.103Z,17024
2018-04-26T10:01:25.120Z,17824
2018-04-26T10:02:39.805Z,17824
2018-04-26T10:03:39.831Z,17536
2018-04-26T10:04:39.853Z,16468
2018-04-26T10:05:39.873Z,15468
2018-04-26T10:06:25.232Z,15024
2018-04-26T10:08:25.277Z,13620
2018-04-26T10:09:25.037Z,13272
2018-04-26T10:10:25.325Z,13144
2018-04-26T10:12:39.502Z,15196
2018-04-26T10:13:40.041Z,15896
2018-04-26T10:14:24.886Z,16512
2018-04-26T10:15:24.912Z,18624
2018-04-26T10:16:25.196Z,18432
2018-04-26T10:17:25.471Z,19072
2018-04-26T10:18:25.510Z,20352
2018-04-26T10:19:25.527Z,20416
2018-04-26T10:20:25.545Z,24640
2018-04-26T10:21:25.310Z,18880
2018-04-26T10:22:24.809Z,19040
2018-04-26T10:23:25.605Z,21472
2018-04-26T10:24:25.631Z,24416
2018-04-26T10:25:25.653Z,20736
2018-04-26T10:26:25.684Z,13484
2018-04-26T10:27:55.024Z,13296
2018-04-26T10:28:25.465Z,16428
2018-04-26T10:29:40.425Z,15584
2018-04-26T10:30:25.774Z,13232
2018-04-26T10:31:25.799Z,12000
2018-04-26T10:32:40.566Z,16092
2018-04-26T10:33:25.327Z,14188
2018-04-26T10:34:40.529Z,13204
2018-04-26T10:35:26.187Z,12780
2018-04-26T10:36:40.586Z,19648
2018-04-26T10:37:25.954Z,20416
2018-04-26T10:38:25.974Z,19648
2018-04-26T10:39:25.989Z,12352
2018-04-26T10:40:25.749Z,16784
2018-04-26T10:41:26.032Z,16336
2018-04-26T10:42:25.804Z,17600
2018-04-26T10:43:26.089Z,17536
2018-04-26T10:44:26.419Z,18336
2018-04-26T10:45:25.897Z,17760
2018-04-26T10:46:26.149Z,10180
2018-04-26T10:47:26.170Z,17856
2018-04-26T10:49:26.220Z,19200
2018-04-26T10:50:26.246Z,12708
2018-04-26T10:51:26.268Z,12140
2018-04-26T10:52:40.956Z,9404
2018-04-26T10:53:26.314Z,7840
2018-04-26T10:54:26.088Z,5832
2018-04-26T10:56:26.128Z,3968
2018-04-26T10:57:26.149Z,3144
2018-04-26T10:58:26.437Z,2796
2018-04-26T10:59:41.117Z,2908
2018-04-26T11:00:26.479Z,3468
2018-04-26T11:01:26.551Z,3556
2018-04-26T11:02:26.530Z,5772
2018-04-26T11:03:26.549Z,7620
2018-04-26T11:04:26.570Z,8532
2018-04-26T11:05:26.607Z,9108
2018-04-26T11:06:26.621Z,10092
2018-04-26T11:07:26.642Z,10028
2018-04-26T11:08:26.661Z,9580
2018-04-26T11:09:26.524Z,9164
2018-04-26T11:10:26.705Z,10196
2018-04-26T11:11:27.027Z,10528
2018-04-26T11:12:26.756Z,10384
2018-04-26T11:13:26.266Z,10468
2018-04-26T11:14:26.557Z,13100
2018-04-26T11:15:41.782Z,11964
2018-04-26T11:16:26.846Z,12136
2018-04-26T11:17:27.018Z,11452
2018-04-26T11:20:26.938Z,10380
2018-04-26T11:21:26.961Z,7704
2018-04-26T11:22:26.723Z,8636
2018-04-26T11:23:27.216Z,8884
2018-04-26T11:24:26.954Z,11976
2018-04-26T11:25:26.796Z,10980
2018-04-26T11:26:27.080Z,11916
2018-04-26T11:27:26.848Z,11456
2018-04-26T11:28:27.119Z,11100
2018-04-26T11:29:27.496Z,9012
2018-04-26T11:30:41.824Z,9144
2018-04-26T11:31:41.845Z,9768
2018-04-26T11:32:27.211Z,9760
2018-04-26T11:33:27.241Z,9300
2018-04-26T11:34:26.998Z,9380
2018-04-26T11:35:27.276Z,9396
2018-04-26T11:36:27.301Z,8652
2018-04-26T11:37:27.330Z,8036
2018-04-26T11:38:42.010Z,8924
2018-04-26T11:39:27.114Z,9504
2018-04-26T11:40:27.137Z,9208
2018-04-26T11:41:27.417Z,8276
2018-04-26T11:42:42.203Z,7244
2018-04-26T11:43:42.127Z,5720
2018-04-26T11:45:27.513Z,5676
2018-04-26T11:46:27.024Z,6048
2018-04-26T11:47:42.219Z,7004
2018-04-26T11:48:27.323Z,7184
2018-04-26T11:49:27.624Z,6968
2018-04-26T11:50:42.025Z,6396
2018-04-26T11:51:27.813Z,6324
2018-04-26T11:52:27.889Z,6524
2018-04-26T11:53:27.745Z,7372
2018-04-26T11:54:27.748Z,10160
2018-04-26T11:55:27.478Z,10952
2018-04-26T11:56:42.652Z,10896
2018-04-26T11:57:27.783Z,10656
2018-04-26T11:58:27.813Z,9368
2018-04-26T11:59:27.836Z,9012
2018-04-26T12:00:27.854Z,8556
2018-04-26T12:01:27.878Z,8188
2018-04-26T12:02:43.127Z,7940
2018-04-26T12:03:42.581Z,7836
2018-04-26T12:04:27.431Z,7804
2018-04-26T12:05:27.708Z,8092
2018-04-26T12:06:42.396Z,8328
2018-04-26T12:07:28.015Z,8228
2018-04-26T12:08:42.697Z,9012
2018-04-26T12:09:27.798Z,9276
2018-04-26T12:10:28.083Z,8472
2018-04-26T12:11:28.104Z,8452
2018-04-26T12:12:42.799Z,9052
2018-04-26T12:13:28.169Z,8796
2018-04-26T12:14:27.657Z,8132
2018-04-26T12:15:27.947Z,7552
2018-04-26T12:16:28.320Z,7280
2018-04-26T12:17:27.987Z,6828
2018-04-26T12:18:28.182Z,6980
2018-04-26T12:19:28.291Z,7208
2018-04-26T12:20:28.310Z,7656
2018-04-26T12:21:28.334Z,7324
2018-04-26T12:23:28.384Z,5592
2018-04-26T12:24:28.406Z,5028
2018-04-26T12:25:28.435Z,4624
2018-04-26T12:26:28.190Z,4268
2018-04-26T12:27:42.891Z,4260
2018-04-26T12:28:28.500Z,4468
2018-04-26T12:29:28.926Z,5128
2018-04-26T12:30:28.646Z,5908
2018-04-26T12:31:28.569Z,6556
2018-04-26T12:32:28.584Z,6944
2018-04-26T12:33:28.609Z,10644
2018-04-26T12:34:43.291Z,12528
2018-04-26T12:35:28.402Z,12420
2018-04-26T12:36:28.233Z,12956
2018-04-26T12:37:28.712Z,12004
2018-04-26T12:38:28.728Z,13276
2018-04-26T12:39:28.488Z,10192
2018-04-26T12:40:28.782Z,8812
2018-04-26T12:41:43.459Z,8360
2018-04-26T12:42:28.817Z,8404
2018-04-26T12:43:28.836Z,7524
2018-04-26T12:44:28.865Z,6676
2018-04-26T12:45:28.626Z,6600
2018-04-26T12:46:28.908Z,6564
2018-04-26T12:47:28.927Z,6788
2018-04-26T12:48:28.956Z,9780
2018-04-26T12:49:28.463Z,10380
2018-04-26T12:50:43.669Z,9904
2018-04-26T12:51:43.426Z,10448
2018-04-26T12:52:28.793Z,12092
2018-04-26T12:53:28.295Z,10480
2018-04-26T12:54:43.758Z,10100
2018-04-26T12:55:29.117Z,9228
2018-04-26T12:56:28.883Z,9076
2018-04-26T12:57:29.169Z,9080
2018-04-26T12:58:43.847Z,8824
2018-04-26T12:59:43.872Z,8276
2018-04-26T13:00:28.970Z,7924
2018-04-26T13:01:29.001Z,7480
2018-04-26T13:02:28.863Z,6864
2018-04-26T13:03:29.310Z,5860
2018-04-26T13:04:29.073Z,5384
2018-04-26T13:05:29.348Z,4828
2018-04-26T13:06:44.032Z,4336
2018-04-26T13:07:29.232Z,4080
2018-04-26T13:08:28.899Z,3936
2018-04-26T13:09:29.465Z,3624
2018-04-26T13:10:29.218Z,3064
2018-04-26T13:11:29.228Z,2688
2018-04-26T13:12:29.253Z,2356
2018-04-26T13:13:29.537Z,2120
2018-04-26T13:14:29.556Z,2060
2018-04-26T13:16:29.607Z,1552
2018-04-26T13:17:44.029Z,1152
2018-04-26T13:18:29.649Z,992
2018-04-26T13:19:29.666Z,772
2018-04-26T13:20:29.441Z,648
2018-04-26T13:22:44.138Z,1032
2018-04-26T13:23:29.907Z,1112
2018-04-26T13:24:29.787Z,1328
2018-04-26T13:25:29.546Z,1472
2018-04-26T13:26:29.311Z,1632
2018-04-26T13:27:29.664Z,1816
2018-04-26T13:28:29.873Z,2144
2018-04-26T13:29:29.743Z,2736
2018-04-26T13:30:44.317Z,4056
2018-04-26T13:31:29.680Z,5272
2018-04-26T13:32:29.956Z,8604
2018-04-26T13:33:29.466Z,9972
2018-04-26T13:34:44.419Z,13216
2018-04-26T13:36:30.256Z,14208
2018-04-26T13:37:44.470Z,13524
2018-04-26T13:38:29.837Z,13684
2018-04-26T13:39:29.593Z,14416
2018-04-26T13:40:29.875Z,15360
2018-04-26T13:41:44.828Z,14528
2018-04-26T13:42:29.668Z,13280
2018-04-26T13:43:29.943Z,11676
2018-04-26T13:44:30.230Z,10652
2018-04-26T13:45:29.994Z,10068
2018-04-26T13:46:45.084Z,9636
2018-04-26T13:47:30.030Z,9368
2018-04-26T13:48:30.307Z,9072
2018-04-26T13:49:30.078Z,8856
2018-04-26T13:50:45.018Z,8620
2018-04-26T13:51:45.055Z,8396
2018-04-26T13:52:30.400Z,8256
2018-04-26T13:53:45.081Z,8048
2018-04-26T13:54:30.183Z,7956
2018-04-26T13:55:30.500Z,7524
2018-04-26T13:56:30.492Z,7688
2018-04-26T13:57:30.257Z,7588
2018-04-26T13:58:30.533Z,7532
2018-04-26T13:59:30.562Z,7516
2018-04-26T14:00:45.292Z,7532
2018-04-26T14:01:30.341Z,7592
2018-04-26T14:02:30.364Z,7640
2018-04-26T14:03:30.646Z,7768
2018-04-26T14:04:30.163Z,7972
2018-04-26T14:07:30.807Z,8804
2018-04-26T14:08:45.423Z,9528
2018-04-26T14:09:45.446Z,9664
2018-04-26T14:10:30.805Z,6740
2018-04-26T14:11:30.567Z,5792
2018-04-26T14:12:45.260Z,5300
2018-04-26T14:13:30.613Z,5256
2018-04-26T14:15:30.708Z,4688
2018-04-26T14:16:30.420Z,4548
2018-04-26T14:17:30.868Z,7444
2018-04-26T14:18:30.728Z,7544
2018-04-26T14:19:31.005Z,5016
2018-04-26T14:20:31.043Z,7704
2018-04-26T14:21:31.057Z,7332
2018-04-26T14:22:31.079Z,8172